LHA14L EDDH-ENGM
Flight info
| Callsign | LHA14L |
|---|---|
| Flight time | 1h 4m |
| Altitude | 37000 |
| Route | SOKWO1G SOKWO T814 EXNEL M105 AMRAK P999 ALS DCT TESPI DCT SABAK L997 REGMA DCT LUNIP |
| Aircraft | A320/M-SDE3FGHIRWY/LB1 |
Departure
| Time | 2026-05-05 17:28 |
|---|---|
| Airport | Hamburg Helmut Schmidt Airport (EDDH) |
Arrival
| Time | 2026-05-05 18:33 |
|---|---|
| Airport | Oslo-Gardermoen International Airport (ENGM) |
| Time | Latitude | Longitude | Altitude | Speed | Heading |
|---|---|---|---|---|---|
| 2026-05-05 17:00 | 53.63112 | 10.00381 | 49 ft | 0 kts | 87° |
| 2026-05-05 17:19 | 53.63111 | 10.00346 | 45 ft | 4 kts | 87° |
| 2026-05-05 17:19 | 53.63110 | 10.00300 | 44 ft | 4 kts | 87° |
| 2026-05-05 17:19 | 53.63109 | 10.00264 | 44 ft | 4 kts | 88° |
| 2026-05-05 17:20 | 53.63110 | 10.00220 | 44 ft | 4 kts | 111° |
| 2026-05-05 17:20 | 53.63125 | 10.00191 | 44 ft | 3 kts | 173° |
| 2026-05-05 17:20 | 53.63127 | 10.00190 | 45 ft | 0 kts | 175° |
| 2026-05-05 17:22 | 53.63105 | 10.00193 | 45 ft | 10 kts | 175° |
| 2026-05-05 17:22 | 53.63040 | 10.00152 | 48 ft | 9 kts | 213° |
| 2026-05-05 17:22 | 53.62988 | 10.00097 | 47 ft | 8 kts | 212° |
| 2026-05-05 17:23 | 53.62943 | 10.00048 | 47 ft | 7 kts | 217° |
| 2026-05-05 17:23 | 53.62919 | 9.99986 | 48 ft | 6 kts | 242° |
| 2026-05-05 17:23 | 53.62904 | 9.99939 | 46 ft | 3 kts | 242° |
| 2026-05-05 17:23 | 53.62896 | 9.99914 | 48 ft | 0 kts | 243° |
| 2026-05-05 17:24 | 53.62890 | 9.99894 | 45 ft | 6 kts | 243° |
| 2026-05-05 17:25 | 53.62869 | 9.99822 | 45 ft | 8 kts | 243° |
| 2026-05-05 17:25 | 53.62858 | 9.99769 | 45 ft | 6 kts | 271° |
| 2026-05-05 17:25 | 53.62877 | 9.99736 | 44 ft | 0 kts | 334° |
| 2026-05-05 17:27 | 53.62944 | 9.99679 | 45 ft | 37 kts | 333° |
| 2026-05-05 17:27 | 53.63394 | 9.99290 | 47 ft | 105 kts | 333° |
| 2026-05-05 17:28 | 53.64205 | 9.98589 | 52 ft | 155 kts | 332° |
| 2026-05-05 17:28 | 53.65204 | 9.97743 | 563 ft | 160 kts | 336° |
| 2026-05-05 17:28 | 53.66199 | 9.96898 | 1259 ft | 161 kts | 334° |
| 2026-05-05 17:28 | 53.67238 | 9.96004 | 1708 ft | 177 kts | 334° |
| 2026-05-05 17:29 | 53.68410 | 9.95019 | 2012 ft | 200 kts | 339° |
| 2026-05-05 17:29 | 53.69826 | 9.94671 | 2529 ft | 211 kts | 0° |
| 2026-05-05 17:29 | 53.71303 | 9.94692 | 3332 ft | 214 kts | 358° |
| 2026-05-05 17:29 | 53.72804 | 9.94729 | 4075 ft | 219 kts | 4° |
| 2026-05-05 17:30 | 53.74289 | 9.95506 | 4672 ft | 236 kts | 28° |
| 2026-05-05 17:30 | 53.75751 | 9.97056 | 5045 ft | 260 kts | 31° |
| 2026-05-05 17:30 | 53.77313 | 9.98773 | 5657 ft | 274 kts | 31° |
| 2026-05-05 17:30 | 53.78925 | 10.00561 | 6460 ft | 280 kts | 31° |
| 2026-05-05 17:31 | 53.80567 | 10.02384 | 7249 ft | 285 kts | 31° |
| 2026-05-05 17:31 | 53.82242 | 10.04234 | 8080 ft | 290 kts | 31° |
| 2026-05-05 17:31 | 53.83945 | 10.06104 | 8891 ft | 294 kts | 31° |
| 2026-05-05 17:31 | 53.85679 | 10.08002 | 9703 ft | 299 kts | 30° |
| 2026-05-05 17:32 | 53.87479 | 10.09809 | 10377 ft | 305 kts | 22° |
| 2026-05-05 17:32 | 53.89562 | 10.10919 | 10612 ft | 325 kts | 5° |
| 2026-05-05 17:32 | 53.91876 | 10.10990 | 10813 ft | 342 kts | 348° |
| 2026-05-05 17:32 | 53.94218 | 10.10063 | 11320 ft | 350 kts | 342° |
| 2026-05-05 17:33 | 53.96592 | 10.09028 | 12011 ft | 354 kts | 342° |
| 2026-05-05 17:33 | 53.98992 | 10.08006 | 12733 ft | 358 kts | 342° |
| 2026-05-05 17:33 | 54.01424 | 10.06981 | 13457 ft | 362 kts | 343° |
| 2026-05-05 17:33 | 54.03881 | 10.05952 | 14107 ft | 365 kts | 342° |
| 2026-05-05 17:34 | 54.06361 | 10.04915 | 14744 ft | 369 kts | 342° |
| 2026-05-05 17:34 | 54.08865 | 10.03880 | 15371 ft | 372 kts | 342° |
| 2026-05-05 17:34 | 54.11415 | 10.02989 | 15985 ft | 378 kts | 349° |
| 2026-05-05 17:34 | 54.14065 | 10.02749 | 16591 ft | 384 kts | 354° |
| 2026-05-05 17:35 | 54.16749 | 10.02638 | 17200 ft | 387 kts | 354° |
| 2026-05-05 17:35 | 54.19455 | 10.02524 | 17805 ft | 390 kts | 354° |
| 2026-05-05 17:35 | 54.22181 | 10.02403 | 18370 ft | 394 kts | 354° |
| 2026-05-05 17:35 | 54.24929 | 10.02279 | 18872 ft | 397 kts | 354° |
| 2026-05-05 17:36 | 54.27695 | 10.02154 | 19376 ft | 399 kts | 354° |
| 2026-05-05 17:36 | 54.30484 | 10.02028 | 19873 ft | 402 kts | 353° |
| 2026-05-05 17:36 | 54.33296 | 10.01901 | 20369 ft | 405 kts | 353° |
| 2026-05-05 17:36 | 54.36126 | 10.01777 | 20862 ft | 408 kts | 353° |
| 2026-05-05 17:37 | 54.38974 | 10.01654 | 21333 ft | 411 kts | 353° |
| 2026-05-05 17:37 | 54.40874 | 10.01575 | 21641 ft | 413 kts | 353° |
| 2026-05-05 17:37 | 54.44740 | 10.01408 | 22257 ft | 417 kts | 353° |
| 2026-05-05 17:37 | 54.47653 | 10.01274 | 22707 ft | 420 kts | 353° |
| 2026-05-05 17:38 | 54.50546 | 10.01138 | 23151 ft | 423 kts | 353° |
| 2026-05-05 17:38 | 54.53501 | 10.01000 | 23574 ft | 426 kts | 353° |
| 2026-05-05 17:38 | 54.56479 | 10.00864 | 23934 ft | 429 kts | 353° |
| 2026-05-05 17:38 | 54.59473 | 10.00733 | 24290 ft | 432 kts | 353° |
| 2026-05-05 17:39 | 54.62487 | 10.00602 | 24642 ft | 434 kts | 353° |
| 2026-05-05 17:39 | 54.65517 | 10.00465 | 24988 ft | 437 kts | 352° |
| 2026-05-05 17:39 | 54.68566 | 10.00323 | 25334 ft | 440 kts | 352° |
| 2026-05-05 17:39 | 54.71634 | 10.00184 | 25682 ft | 442 kts | 352° |
| 2026-05-05 17:40 | 54.74717 | 10.00047 | 26033 ft | 444 kts | 352° |
| 2026-05-05 17:40 | 54.77815 | 9.99905 | 26377 ft | 447 kts | 352° |
| 2026-05-05 17:40 | 54.80931 | 9.99763 | 26717 ft | 449 kts | 352° |
| 2026-05-05 17:40 | 54.84065 | 9.99622 | 27062 ft | 451 kts | 352° |
| 2026-05-05 17:41 | 54.87212 | 9.99483 | 27398 ft | 454 kts | 353° |
| 2026-05-05 17:41 | 54.90392 | 9.99756 | 27712 ft | 463 kts | 2° |
| 2026-05-05 17:41 | 54.93574 | 10.00910 | 28029 ft | 472 kts | 11° |
| 2026-05-05 17:41 | 54.96721 | 10.02581 | 28328 ft | 474 kts | 12° |
| 2026-05-05 17:42 | 54.99883 | 10.04266 | 28638 ft | 476 kts | 12° |
| 2026-05-05 17:42 | 55.03056 | 10.05953 | 28936 ft | 478 kts | 12° |
| 2026-05-05 17:42 | 55.06244 | 10.07647 | 29233 ft | 480 kts | 12° |
| 2026-05-05 17:42 | 55.09443 | 10.09351 | 29532 ft | 481 kts | 12° |
| 2026-05-05 17:43 | 55.12642 | 10.11055 | 29958 ft | 480 kts | 12° |
| 2026-05-05 17:43 | 55.15829 | 10.12757 | 30329 ft | 479 kts | 12° |
| 2026-05-05 17:43 | 55.19010 | 10.14457 | 30698 ft | 477 kts | 13° |
| 2026-05-05 17:43 | 55.22179 | 10.16155 | 31078 ft | 476 kts | 13° |
| 2026-05-05 17:44 | 55.25337 | 10.17852 | 31458 ft | 474 kts | 13° |
| 2026-05-05 17:44 | 55.28488 | 10.19550 | 31831 ft | 473 kts | 13° |
| 2026-05-05 17:44 | 55.31625 | 10.21242 | 32205 ft | 471 kts | 13° |
| 2026-05-05 17:44 | 55.34755 | 10.22927 | 32574 ft | 470 kts | 13° |
| 2026-05-05 17:45 | 55.37881 | 10.24606 | 32944 ft | 469 kts | 13° |
| 2026-05-05 17:45 | 55.40996 | 10.26286 | 33295 ft | 468 kts | 13° |
| 2026-05-05 17:45 | 55.44104 | 10.27973 | 33646 ft | 467 kts | 13° |
| 2026-05-05 17:45 | 55.47202 | 10.29664 | 33987 ft | 466 kts | 13° |
| 2026-05-05 17:46 | 55.50300 | 10.31356 | 34279 ft | 465 kts | 13° |
| 2026-05-05 17:46 | 55.53350 | 10.33023 | 34542 ft | 465 kts | 13° |
| 2026-05-05 17:46 | 55.56442 | 10.34710 | 34804 ft | 465 kts | 13° |
| 2026-05-05 17:46 | 55.59536 | 10.36397 | 35046 ft | 465 kts | 13° |
| 2026-05-05 17:47 | 55.62632 | 10.38083 | 35288 ft | 466 kts | 13° |
| 2026-05-05 17:47 | 55.65727 | 10.39777 | 35510 ft | 466 kts | 13° |
| 2026-05-05 17:47 | 55.68823 | 10.41481 | 35732 ft | 466 kts | 13° |
| 2026-05-05 17:47 | 55.71922 | 10.43190 | 35950 ft | 466 kts | 13° |
| 2026-05-05 17:48 | 55.75020 | 10.44902 | 36171 ft | 466 kts | 13° |
| 2026-05-05 17:48 | 55.78119 | 10.46620 | 36380 ft | 467 kts | 13° |
| 2026-05-05 17:48 | 55.81219 | 10.48335 | 36584 ft | 467 kts | 13° |
| 2026-05-05 17:48 | 55.84320 | 10.50052 | 36779 ft | 467 kts | 13° |
| 2026-05-05 17:49 | 55.87427 | 10.51775 | 36963 ft | 469 kts | 13° |
| 2026-05-05 17:49 | 55.93699 | 10.55106 | 36950 ft | 471 kts | 10° |
| 2026-05-05 17:50 | 56.00046 | 10.57976 | 36959 ft | 470 kts | 9° |
| 2026-05-05 17:50 | 56.06402 | 10.60731 | 36965 ft | 471 kts | 9° |
| 2026-05-05 17:51 | 56.12756 | 10.63609 | 36972 ft | 471 kts | 9° |
| 2026-05-05 17:51 | 56.19104 | 10.66586 | 36983 ft | 472 kts | 9° |
| 2026-05-05 17:52 | 56.25450 | 10.69572 | 36991 ft | 472 kts | 9° |
| 2026-05-05 17:52 | 56.31765 | 10.72537 | 36995 ft | 472 kts | 9° |
| 2026-05-05 17:53 | 56.38112 | 10.75520 | 36994 ft | 472 kts | 9° |
| 2026-05-05 17:53 | 56.44471 | 10.78508 | 36994 ft | 472 kts | 9° |
| 2026-05-05 17:54 | 56.50826 | 10.81503 | 36989 ft | 472 kts | 9° |
| 2026-05-05 17:54 | 56.57181 | 10.84500 | 36985 ft | 472 kts | 9° |
| 2026-05-05 17:55 | 56.63536 | 10.87528 | 36985 ft | 472 kts | 9° |
| 2026-05-05 17:55 | 56.69888 | 10.90573 | 36982 ft | 472 kts | 9° |
| 2026-05-05 17:56 | 56.75166 | 10.93101 | 36983 ft | 472 kts | 9° |
| 2026-05-05 17:56 | 56.81522 | 10.96145 | 36991 ft | 472 kts | 9° |
| 2026-05-05 17:57 | 56.87873 | 10.99199 | 36990 ft | 472 kts | 9° |
| 2026-05-05 17:57 | 56.94224 | 11.02284 | 36992 ft | 472 kts | 9° |
| 2026-05-05 17:58 | 57.00572 | 11.05374 | 36993 ft | 472 kts | 9° |
| 2026-05-05 17:58 | 57.06920 | 11.08468 | 36991 ft | 472 kts | 9° |
| 2026-05-05 17:59 | 57.13265 | 11.11578 | 36990 ft | 472 kts | 9° |
| 2026-05-05 17:59 | 57.19614 | 11.14689 | 36985 ft | 472 kts | 9° |
| 2026-05-05 18:00 | 57.25957 | 11.17809 | 36986 ft | 472 kts | 9° |
| 2026-05-05 18:00 | 57.32305 | 11.20955 | 36983 ft | 472 kts | 9° |
| 2026-05-05 18:01 | 57.38604 | 11.24078 | 36984 ft | 472 kts | 9° |
| 2026-05-05 18:01 | 57.44951 | 11.27230 | 36987 ft | 472 kts | 9° |
| 2026-05-05 18:02 | 57.51300 | 11.30404 | 36984 ft | 473 kts | 9° |
| 2026-05-05 18:02 | 57.57655 | 11.33594 | 36981 ft | 473 kts | 9° |
| 2026-05-05 18:03 | 57.64010 | 11.36787 | 36983 ft | 473 kts | 8° |
| 2026-05-05 18:03 | 57.70374 | 11.39994 | 36989 ft | 474 kts | 9° |
| 2026-05-05 18:04 | 57.76742 | 11.43231 | 36994 ft | 474 kts | 9° |
| 2026-05-05 18:04 | 57.83111 | 11.46486 | 36993 ft | 475 kts | 9° |
| 2026-05-05 18:05 | 57.89484 | 11.49739 | 36989 ft | 475 kts | 9° |
| 2026-05-05 18:05 | 57.95860 | 11.53001 | 36988 ft | 475 kts | 8° |
| 2026-05-05 18:06 | 58.02234 | 11.56263 | 36993 ft | 475 kts | 8° |
| 2026-05-05 18:06 | 58.08611 | 11.59551 | 36988 ft | 475 kts | 9° |
| 2026-05-05 18:07 | 58.14994 | 11.62699 | 36981 ft | 470 kts | 3° |
| 2026-05-05 18:07 | 58.18207 | 11.63372 | 36772 ft | 460 kts | 354° |
| 2026-05-05 18:07 | 58.21328 | 11.63163 | 36156 ft | 450 kts | 345° |
| 2026-05-05 18:07 | 58.24447 | 11.62255 | 35513 ft | 447 kts | 343° |
| 2026-05-05 18:08 | 58.27469 | 11.61320 | 34898 ft | 445 kts | 342° |
| 2026-05-05 18:08 | 58.30522 | 11.60363 | 34307 ft | 444 kts | 342° |
| 2026-05-05 18:08 | 58.33561 | 11.59411 | 33689 ft | 442 kts | 342° |
| 2026-05-05 18:08 | 58.36592 | 11.58462 | 32947 ft | 441 kts | 342° |
| 2026-05-05 18:09 | 58.39623 | 11.57509 | 32172 ft | 441 kts | 342° |
| 2026-05-05 18:09 | 58.42656 | 11.56557 | 31367 ft | 442 kts | 342° |
| 2026-05-05 18:09 | 58.45691 | 11.55606 | 30559 ft | 443 kts | 342° |
| 2026-05-05 18:09 | 58.48739 | 11.54655 | 29677 ft | 444 kts | 342° |
| 2026-05-05 18:10 | 58.51779 | 11.53710 | 28933 ft | 440 kts | 342° |
| 2026-05-05 18:10 | 58.54787 | 11.52785 | 28258 ft | 435 kts | 342° |
| 2026-05-05 18:10 | 58.57761 | 11.51869 | 27593 ft | 431 kts | 342° |
| 2026-05-05 18:10 | 58.60706 | 11.50957 | 26946 ft | 426 kts | 341° |
| 2026-05-05 18:11 | 58.63621 | 11.50046 | 26331 ft | 422 kts | 341° |
| 2026-05-05 18:11 | 58.66506 | 11.49137 | 25722 ft | 418 kts | 341° |
| 2026-05-05 18:11 | 58.69365 | 11.48232 | 25124 ft | 415 kts | 341° |
| 2026-05-05 18:11 | 58.72200 | 11.47331 | 24536 ft | 411 kts | 341° |
| 2026-05-05 18:12 | 58.75009 | 11.46440 | 23957 ft | 407 kts | 341° |
| 2026-05-05 18:12 | 58.77793 | 11.45553 | 23344 ft | 404 kts | 341° |
| 2026-05-05 18:12 | 58.80559 | 11.44676 | 22696 ft | 401 kts | 341° |
| 2026-05-05 18:12 | 58.83298 | 11.43809 | 22101 ft | 397 kts | 341° |
| 2026-05-05 18:13 | 58.86007 | 11.42946 | 21533 ft | 393 kts | 341° |
| 2026-05-05 18:13 | 58.88690 | 11.42091 | 20988 ft | 389 kts | 340° |
| 2026-05-05 18:13 | 58.91345 | 11.41249 | 20453 ft | 385 kts | 340° |
| 2026-05-05 18:13 | 58.93974 | 11.40412 | 19946 ft | 381 kts | 340° |
| 2026-05-05 18:14 | 58.96579 | 11.39576 | 19432 ft | 377 kts | 340° |
| 2026-05-05 18:14 | 58.99155 | 11.38749 | 18928 ft | 374 kts | 340° |
| 2026-05-05 18:14 | 59.01710 | 11.37924 | 18449 ft | 371 kts | 340° |
| 2026-05-05 18:14 | 59.04245 | 11.37102 | 17933 ft | 367 kts | 340° |
| 2026-05-05 18:15 | 59.06751 | 11.36293 | 17550 ft | 361 kts | 340° |
| 2026-05-05 18:15 | 59.09150 | 11.35535 | 17419 ft | 348 kts | 340° |
| 2026-05-05 18:15 | 59.11492 | 11.34776 | 17289 ft | 334 kts | 339° |
| 2026-05-05 18:15 | 59.13719 | 11.33885 | 17160 ft | 320 kts | 336° |
| 2026-05-05 18:16 | 59.15842 | 11.32911 | 17022 ft | 308 kts | 335° |
| 2026-05-05 18:16 | 59.17885 | 11.31927 | 16892 ft | 299 kts | 336° |
| 2026-05-05 18:16 | 59.19951 | 11.31271 | 16623 ft | 301 kts | 341° |
| 2026-05-05 18:16 | 59.22022 | 11.30776 | 16293 ft | 299 kts | 342° |
| 2026-05-05 18:17 | 59.24084 | 11.30322 | 15955 ft | 298 kts | 343° |
| 2026-05-05 18:17 | 59.26138 | 11.29894 | 15629 ft | 296 kts | 344° |
| 2026-05-05 18:17 | 59.28180 | 11.29477 | 15294 ft | 294 kts | 345° |
| 2026-05-05 18:17 | 59.30210 | 11.29063 | 14998 ft | 292 kts | 345° |
| 2026-05-05 18:18 | 59.32229 | 11.28652 | 14694 ft | 291 kts | 346° |
| 2026-05-05 18:18 | 59.34235 | 11.28241 | 14388 ft | 289 kts | 346° |
| 2026-05-05 18:18 | 59.36232 | 11.27831 | 14051 ft | 288 kts | 346° |
| 2026-05-05 18:18 | 59.38213 | 11.27420 | 13757 ft | 286 kts | 347° |
| 2026-05-05 18:19 | 59.40185 | 11.27008 | 13421 ft | 284 kts | 347° |
| 2026-05-05 18:19 | 59.42147 | 11.26598 | 13049 ft | 283 kts | 348° |
| 2026-05-05 18:19 | 59.44104 | 11.26191 | 12673 ft | 282 kts | 348° |
| 2026-05-05 18:19 | 59.46051 | 11.25784 | 12314 ft | 281 kts | 348° |
| 2026-05-05 18:20 | 59.47983 | 11.25292 | 11959 ft | 279 kts | 346° |
| 2026-05-05 18:20 | 59.49901 | 11.24722 | 11616 ft | 278 kts | 346° |
| 2026-05-05 18:20 | 59.51805 | 11.24126 | 11256 ft | 277 kts | 346° |
| 2026-05-05 18:20 | 59.53705 | 11.23519 | 10892 ft | 276 kts | 346° |
| 2026-05-05 18:21 | 59.55598 | 11.22914 | 10546 ft | 275 kts | 347° |
| 2026-05-05 18:21 | 59.57489 | 11.22317 | 10168 ft | 275 kts | 347° |
| 2026-05-05 18:21 | 59.59378 | 11.21725 | 9805 ft | 275 kts | 348° |
| 2026-05-05 18:21 | 59.61265 | 11.21137 | 9411 ft | 274 kts | 348° |
| 2026-05-05 18:22 | 59.63145 | 11.20557 | 9030 ft | 273 kts | 348° |
| 2026-05-05 18:22 | 59.65016 | 11.19983 | 8641 ft | 272 kts | 348° |
| 2026-05-05 18:22 | 59.66880 | 11.19409 | 8252 ft | 270 kts | 348° |
| 2026-05-05 18:22 | 59.68735 | 11.18840 | 7859 ft | 269 kts | 348° |
| 2026-05-05 18:23 | 59.70548 | 11.18043 | 7470 ft | 265 kts | 337° |
| 2026-05-05 18:23 | 59.72270 | 11.16753 | 7080 ft | 264 kts | 337° |
| 2026-05-05 18:23 | 59.73986 | 11.15481 | 6681 ft | 263 kts | 337° |
| 2026-05-05 18:23 | 59.75694 | 11.14217 | 6293 ft | 261 kts | 337° |
| 2026-05-05 18:24 | 59.77390 | 11.12954 | 5895 ft | 260 kts | 337° |
| 2026-05-05 18:24 | 59.79077 | 11.11692 | 5483 ft | 258 kts | 337° |
| 2026-05-05 18:24 | 59.80751 | 11.10438 | 5096 ft | 257 kts | 338° |
| 2026-05-05 18:24 | 59.82419 | 11.09188 | 4713 ft | 255 kts | 338° |
| 2026-05-05 18:25 | 59.84075 | 11.07951 | 4302 ft | 254 kts | 338° |
| 2026-05-05 18:25 | 59.85166 | 11.07135 | 4068 ft | 252 kts | 337° |
| 2026-05-05 18:25 | 59.87107 | 11.04664 | 4020 ft | 250 kts | 317° |
| 2026-05-05 18:25 | 59.88375 | 11.02295 | 4019 ft | 250 kts | 315° |
| 2026-05-05 18:26 | 59.89631 | 10.99893 | 4018 ft | 251 kts | 315° |
| 2026-05-05 18:26 | 59.90888 | 10.97478 | 4021 ft | 250 kts | 315° |
| 2026-05-05 18:26 | 59.92104 | 10.95144 | 4013 ft | 234 kts | 315° |
| 2026-05-05 18:26 | 59.93238 | 10.92982 | 4016 ft | 218 kts | 315° |
| 2026-05-05 18:27 | 59.94398 | 10.91202 | 4007 ft | 207 kts | 339° |
| 2026-05-05 18:27 | 59.95773 | 10.91272 | 4018 ft | 199 kts | 24° |
| 2026-05-05 18:27 | 59.96753 | 10.93064 | 4028 ft | 186 kts | 46° |
| 2026-05-05 18:27 | 59.97666 | 10.94732 | 4015 ft | 173 kts | 28° |
| 2026-05-05 18:28 | 59.99806 | 10.96580 | 4013 ft | 166 kts | 14° |
| 2026-05-05 18:28 | 60.00903 | 10.97265 | 4014 ft | 165 kts | 12° |
| 2026-05-05 18:28 | 60.02003 | 10.97914 | 4014 ft | 165 kts | 12° |
| 2026-05-05 18:29 | 60.03109 | 10.98553 | 3892 ft | 165 kts | 12° |
| 2026-05-05 18:29 | 60.04216 | 10.99187 | 3701 ft | 165 kts | 12° |
| 2026-05-05 18:29 | 60.05317 | 10.99817 | 3491 ft | 164 kts | 11° |
| 2026-05-05 18:29 | 60.06416 | 11.00445 | 3265 ft | 164 kts | 12° |
| 2026-05-05 18:30 | 60.07510 | 11.01070 | 3040 ft | 164 kts | 11° |
| 2026-05-05 18:30 | 60.08603 | 11.01695 | 2813 ft | 162 kts | 12° |
| 2026-05-05 18:30 | 60.09684 | 11.02314 | 2585 ft | 161 kts | 12° |
| 2026-05-05 18:30 | 60.10766 | 11.02933 | 2362 ft | 161 kts | 11° |
| 2026-05-05 18:31 | 60.11814 | 11.03535 | 2149 ft | 155 kts | 12° |
| 2026-05-05 18:31 | 60.12811 | 11.04109 | 1950 ft | 145 kts | 11° |
| 2026-05-05 18:31 | 60.13762 | 11.04654 | 1736 ft | 141 kts | 11° |
| 2026-05-05 18:31 | 60.14698 | 11.05190 | 1514 ft | 140 kts | 11° |
| 2026-05-05 18:32 | 60.15634 | 11.05728 | 1307 ft | 140 kts | 11° |
| 2026-05-05 18:32 | 60.16567 | 11.06263 | 1118 ft | 140 kts | 13° |
| 2026-05-05 18:32 | 60.17502 | 11.06800 | 924 ft | 140 kts | 13° |
| 2026-05-05 18:32 | 60.18432 | 11.07334 | 735 ft | 138 kts | 13° |
| 2026-05-05 18:33 | 60.19308 | 11.07835 | 672 ft | 112 kts | 17° |
| 2026-05-05 18:33 | 60.19786 | 11.08116 | 672 ft | 40 kts | 16° |
| 2026-05-05 18:33 | 60.19932 | 11.08213 | 675 ft | 12 kts | 37° |
| 2026-05-05 18:33 | 60.19926 | 11.08335 | 675 ft | 9 kts | 135° |
| 2026-05-05 18:34 | 60.19897 | 11.08418 | 675 ft | 5 kts | 113° |
| 2026-05-05 18:34 | 60.19882 | 11.08517 | 677 ft | 11 kts | 107° |
| 2026-05-05 18:34 | 60.19864 | 11.08647 | 676 ft | 9 kts | 105° |
| 2026-05-05 18:34 | 60.19848 | 11.08759 | 678 ft | 12 kts | 106° |
| 2026-05-05 18:35 | 60.19820 | 11.08949 | 677 ft | 12 kts | 106° |
| 2026-05-05 18:35 | 60.19802 | 11.09078 | 683 ft | 8 kts | 106° |
| 2026-05-05 18:35 | 60.19782 | 11.09221 | 683 ft | 11 kts | 106° |
| 2026-05-05 18:35 | 60.19759 | 11.09381 | 683 ft | 12 kts | 106° |
| 2026-05-05 18:36 | 60.19738 | 11.09527 | 680 ft | 10 kts | 106° |
| 2026-05-05 18:36 | 60.19720 | 11.09656 | 683 ft | 9 kts | 105° |
| 2026-05-05 18:36 | 60.19691 | 11.09737 | 684 ft | 6 kts | 153° |
| 2026-05-05 18:36 | 60.19656 | 11.09783 | 684 ft | 8 kts | 122° |
| 2026-05-05 18:37 | 60.19642 | 11.09883 | 685 ft | 7 kts | 106° |
| 2026-05-05 18:37 | 60.19635 | 11.09927 | 685 ft | 1 kts | 106° |
| 2026-05-05 18:37 | 60.19632 | 11.09947 | 680 ft | 2 kts | 106° |
| 2026-05-05 18:37 | 60.19631 | 11.09957 | 681 ft | 0 kts | 106° |